首页
METAR-TAF:

METAR-TAF

机场 :

Colville Lake, 西北特區, 加拿大

纬度: 67-01-16N, 经度: 126-07-43W, 海拔: 274米

当前天气观测

该预报发布于1小时和15分钟前的13:00 UTC
风速4节,风向南转西南
温度 16°C
湿度 94%
气压 1018 hPa
能見度: 6.4公里
天空无云
轻雾

METAR: CYVL 221300Z AUTO 21004KT 4SM BR CLR 16/15 A3006 RMK SLP187 DENSITY ALT 1100FT

时间: 08:15 (14:15 UTC)


TAF: 丢失

超过4000个机场的气象观测和天气预报(METAR&TAF报告)。

可查询的气象台以黄色和红色小点在地图上表示。

将鼠标移到小点上方,可查看气象台名称。

然后点击查看天气观测和预报。

如需切换地图:点击带黑十字的绿色按钮放大地图;点击带横线的绿色按钮缩小地图;或者点击绿色箭头查看邻近地区的地图。


METAR-TAF: